sensor_id;sensor_type;location;lat;lon;timestamp;temperature;humidity
34726;DHT22;20951;50.818;4.344;2023-04-30T00:02:01;11.70;99.90
34726;DHT22;20951;50.818;4.344;2023-04-30T00:04:28;11.70;99.90
34726;DHT22;20951;50.818;4.344;2023-04-30T00:06:54;11.70;99.90
34726;DHT22;20951;50.818;4.344;2023-04-30T00:09:20;11.70;99.90
34726;DHT22;20951;50.818;4.344;2023-04-30T00:11:46;11.70;99.90
34726;DHT22;20951;50.818;4.344;2023-04-30T00:14:12;11.70;99.90
34726;DHT22;20951;50.818;4.344;2023-04-30T00:16:38;11.70;99.90
34726;DHT22;20951;50.818;4.344;2023-04-30T00:19:04;11.70;99.90
34726;DHT22;20951;50.818;4.344;2023-04-30T00:21:31;11.60;99.90
34726;DHT22;20951;50.818;4.344;2023-04-30T00:23:57;11.70;99.90
34726;DHT22;20951;50.818;4.344;2023-04-30T00:26:25;11.70;99.90
34726;DHT22;20951;50.818;4.344;2023-04-30T00:28:51;11.70;99.90
34726;DHT22;20951;50.818;4.344;2023-04-30T00:31:17;11.60;99.90
34726;DHT22;20951;50.818;4.344;2023-04-30T00:33:43;11.60;99.90
34726;DHT22;20951;50.818;4.344;2023-04-30T00:36:09;11.70;99.90
34726;DHT22;20951;50.818;4.344;2023-04-30T00:38:35;11.60;99.90
34726;DHT22;20951;50.818;4.344;2023-04-30T00:41:01;11.50;99.90
34726;DHT22;20951;50.818;4.344;2023-04-30T00:43:27;11.50;99.90
34726;DHT22;20951;50.818;4.344;2023-04-30T00:45:52;11.40;99.90
34726;DHT22;20951;50.818;4.344;2023-04-30T00:48:19;11.40;99.90
34726;DHT22;20951;50.818;4.344;2023-04-30T00:50:48;11.40;99.90
34726;DHT22;20951;50.818;4.344;2023-04-30T00:53:14;11.40;99.90
34726;DHT22;20951;50.818;4.344;2023-04-30T00:55:40;11.30;99.90
34726;DHT22;20951;50.818;4.344;2023-04-30T00:58:07;11.20;99.90
34726;DHT22;20951;50.818;4.344;2023-04-30T01:00:33;11.20;99.90
34726;DHT22;20951;50.818;4.344;2023-04-30T01:03:00;11.30;99.90
34726;DHT22;20951;50.818;4.344;2023-04-30T01:05:26;11.20;99.90
34726;DHT22;20951;50.818;4.344;2023-04-30T01:07:55;11.20;99.90
34726;DHT22;20951;50.818;4.344;2023-04-30T01:10:34;11.30;99.90
34726;DHT22;20951;50.818;4.344;2023-04-30T01:13:25;11.30;99.90
34726;DHT22;20951;50.818;4.344;2023-04-30T01:16:12;11.20;99.90
34726;DHT22;20951;50.818;4.344;2023-04-30T01:18:59;11.20;99.90
34726;DHT22;20951;50.818;4.344;2023-04-30T01:21:27;11.10;99.90
34726;DHT22;20951;50.818;4.344;2023-04-30T01:27:01;11.10;99.90
34726;DHT22;20951;50.818;4.344;2023-04-30T01:29:35;11.00;99.90
34726;DHT22;20951;50.818;4.344;2023-04-30T01:32:04;11.00;99.90
34726;DHT22;20951;50.818;4.344;2023-04-30T01:34:30;11.00;99.90
34726;DHT22;20951;50.818;4.344;2023-04-30T01:37:15;10.90;99.90
34726;DHT22;20951;50.818;4.344;2023-04-30T01:39:56;11.00;99.90
34726;DHT22;20951;50.818;4.344;2023-04-30T01:48:32;11.10;99.90
34726;DHT22;20951;50.818;4.344;2023-04-30T01:51:18;11.00;99.90
34726;DHT22;20951;50.818;4.344;2023-04-30T01:53:45;11.00;99.90
34726;DHT22;20951;50.818;4.344;2023-04-30T01:56:32;11.00;99.90
34726;DHT22;20951;50.818;4.344;2023-04-30T01:59:03;11.00;99.90
34726;DHT22;20951;50.818;4.344;2023-04-30T02:01:31;11.00;99.90
34726;DHT22;20951;50.818;4.344;2023-04-30T02:03:58;10.90;99.90
34726;DHT22;20951;50.818;4.344;2023-04-30T02:06:25;10.90;99.90
34726;DHT22;20951;50.818;4.344;2023-04-30T02:08:55;10.90;99.90
34726;DHT22;20951;50.818;4.344;2023-04-30T02:11:24;10.90;99.90
34726;DHT22;20951;50.818;4.344;2023-04-30T02:13:50;11.10;99.90
34726;DHT22;20951;50.818;4.344;2023-04-30T02:16:16;11.00;99.90
34726;DHT22;20951;50.818;4.344;2023-04-30T02:18:43;10.90;99.90
34726;DHT22;20951;50.818;4.344;2023-04-30T02:21:09;10.80;99.90
34726;DHT22;20951;50.818;4.344;2023-04-30T02:23:35;10.70;99.90
34726;DHT22;20951;50.818;4.344;2023-04-30T02:26:00;10.80;99.90
34726;DHT22;20951;50.818;4.344;2023-04-30T02:28:27;10.80;99.90
34726;DHT22;20951;50.818;4.344;2023-04-30T02:30:53;10.70;99.90
34726;DHT22;20951;50.818;4.344;2023-04-30T02:33:19;10.80;99.90
34726;DHT22;20951;50.818;4.344;2023-04-30T02:35:45;10.70;99.90
34726;DHT22;20951;50.818;4.344;2023-04-30T02:38:11;10.80;99.90
34726;DHT22;20951;50.818;4.344;2023-04-30T02:40:39;10.80;99.90
34726;DHT22;20951;50.818;4.344;2023-04-30T02:43:05;10.80;99.90
34726;DHT22;20951;50.818;4.344;2023-04-30T02:45:31;10.70;99.90
34726;DHT22;20951;50.818;4.344;2023-04-30T02:47:57;10.70;99.90
34726;DHT22;20951;50.818;4.344;2023-04-30T02:50:24;10.70;99.90
34726;DHT22;20951;50.818;4.344;2023-04-30T02:52:50;10.70;99.90
34726;DHT22;20951;50.818;4.344;2023-04-30T02:55:16;10.70;99.90
34726;DHT22;20951;50.818;4.344;2023-04-30T02:57:42;10.60;99.90
34726;DHT22;20951;50.818;4.344;2023-04-30T03:00:09;10.50;99.90
34726;DHT22;20951;50.818;4.344;2023-04-30T03:02:35;10.50;99.90
34726;DHT22;20951;50.818;4.344;2023-04-30T03:05:02;10.50;99.90
34726;DHT22;20951;50.818;4.344;2023-04-30T03:07:28;10.50;99.90
34726;DHT22;20951;50.818;4.344;2023-04-30T03:09:54;10.50;99.90
34726;DHT22;20951;50.818;4.344;2023-04-30T03:12:21;10.50;99.90
34726;DHT22;20951;50.818;4.344;2023-04-30T03:14:47;10.60;99.90
34726;DHT22;20951;50.818;4.344;2023-04-30T03:17:13;10.50;99.90
34726;DHT22;20951;50.818;4.344;2023-04-30T03:19:39;10.40;99.90
34726;DHT22;20951;50.818;4.344;2023-04-30T03:22:05;10.30;99.90
34726;DHT22;20951;50.818;4.344;2023-04-30T03:24:30;10.40;99.90
34726;DHT22;20951;50.818;4.344;2023-04-30T03:26:56;10.40;99.90
34726;DHT22;20951;50.818;4.344;2023-04-30T03:29:22;10.40;99.90
34726;DHT22;20951;50.818;4.344;2023-04-30T03:31:49;10.40;99.90
34726;DHT22;20951;50.818;4.344;2023-04-30T03:34:15;10.30;99.90
34726;DHT22;20951;50.818;4.344;2023-04-30T03:36:42;10.20;99.90
34726;DHT22;20951;50.818;4.344;2023-04-30T03:39:08;10.10;99.90
34726;DHT22;20951;50.818;4.344;2023-04-30T03:41:34;10.20;99.90
34726;DHT22;20951;50.818;4.344;2023-04-30T03:44:01;10.20;99.90
34726;DHT22;20951;50.818;4.344;2023-04-30T03:46:27;10.20;99.90
34726;DHT22;20951;50.818;4.344;2023-04-30T03:48:52;10.20;99.90
34726;DHT22;20951;50.818;4.344;2023-04-30T03:51:19;10.10;99.90
34726;DHT22;20951;50.818;4.344;2023-04-30T03:53:46;10.20;99.90
34726;DHT22;20951;50.818;4.344;2023-04-30T03:56:13;10.20;99.90
34726;DHT22;20951;50.818;4.344;2023-04-30T03:58:39;10.20;99.90
34726;DHT22;20951;50.818;4.344;2023-04-30T04:01:05;10.10;99.90
34726;DHT22;20951;50.818;4.344;2023-04-30T04:03:33;10.00;99.90
34726;DHT22;20951;50.818;4.344;2023-04-30T04:05:59;10.00;99.90
34726;DHT22;20951;50.818;4.344;2023-04-30T04:08:25;10.00;99.90
34726;DHT22;20951;50.818;4.344;2023-04-30T04:10:51;9.90;99.90
34726;DHT22;20951;50.818;4.344;2023-04-30T04:13:17;9.90;99.90
34726;DHT22;20951;50.818;4.344;2023-04-30T04:15:43;10.00;99.90
34726;DHT22;20951;50.818;4.344;2023-04-30T04:18:10;10.10;99.90
34726;DHT22;20951;50.818;4.344;2023-04-30T04:20:36;10.00;99.90
34726;DHT22;20951;50.818;4.344;2023-04-30T04:23:02;10.00;99.90
34726;DHT22;20951;50.818;4.344;2023-04-30T04:25:28;9.90;99.90
34726;DHT22;20951;50.818;4.344;2023-04-30T04:27:54;9.90;99.90
34726;DHT22;20951;50.818;4.344;2023-04-30T04:30:20;9.90;99.90
34726;DHT22;20951;50.818;4.344;2023-04-30T04:32:46;9.80;99.90
34726;DHT22;20951;50.818;4.344;2023-04-30T04:35:15;9.80;99.90
34726;DHT22;20951;50.818;4.344;2023-04-30T04:37:41;9.80;99.90
34726;DHT22;20951;50.818;4.344;2023-04-30T04:40:07;9.80;99.90
34726;DHT22;20951;50.818;4.344;2023-04-30T04:42:35;9.80;99.90
34726;DHT22;20951;50.818;4.344;2023-04-30T04:45:06;9.90;99.90
34726;DHT22;20951;50.818;4.344;2023-04-30T04:47:32;10.00;99.90
34726;DHT22;20951;50.818;4.344;2023-04-30T04:49:58;9.90;99.90
34726;DHT22;20951;50.818;4.344;2023-04-30T04:52:25;9.90;99.90
34726;DHT22;20951;50.818;4.344;2023-04-30T04:54:51;9.90;99.90
34726;DHT22;20951;50.818;4.344;2023-04-30T04:57:17;9.90;99.90
34726;DHT22;20951;50.818;4.344;2023-04-30T04:59:43;10.00;99.90
34726;DHT22;20951;50.818;4.344;2023-04-30T05:02:09;9.90;99.90
34726;DHT22;20951;50.818;4.344;2023-04-30T05:04:36;10.00;99.90
34726;DHT22;20951;50.818;4.344;2023-04-30T05:07:02;9.90;99.90
34726;DHT22;20951;50.818;4.344;2023-04-30T05:09:28;10.00;99.90
34726;DHT22;20951;50.818;4.344;2023-04-30T05:11:54;10.00;99.90
34726;DHT22;20951;50.818;4.344;2023-04-30T05:14:20;10.00;99.90
34726;DHT22;20951;50.818;4.344;2023-04-30T05:16:46;10.00;99.90
34726;DHT22;20951;50.818;4.344;2023-04-30T05:19:12;10.10;99.90
34726;DHT22;20951;50.818;4.344;2023-04-30T05:21:40;10.10;99.90
34726;DHT22;20951;50.818;4.344;2023-04-30T05:24:06;10.00;99.90
34726;DHT22;20951;50.818;4.344;2023-04-30T05:26:32;10.10;99.90
34726;DHT22;20951;50.818;4.344;2023-04-30T05:28:58;10.10;99.90
34726;DHT22;20951;50.818;4.344;2023-04-30T05:31:24;10.10;99.90
34726;DHT22;20951;50.818;4.344;2023-04-30T05:33:50;10.00;99.90
34726;DHT22;20951;50.818;4.344;2023-04-30T05:36:15;10.00;99.90
34726;DHT22;20951;50.818;4.344;2023-04-30T05:38:41;10.10;99.90
34726;DHT22;20951;50.818;4.344;2023-04-30T05:41:11;10.30;99.90
34726;DHT22;20951;50.818;4.344;2023-04-30T05:43:37;10.60;99.90
34726;DHT22;20951;50.818;4.344;2023-04-30T05:46:03;11.10;99.90
34726;DHT22;20951;50.818;4.344;2023-04-30T05:48:32;12.40;99.90
34726;DHT22;20951;50.818;4.344;2023-04-30T05:50:58;13.60;99.90
34726;DHT22;20951;50.818;4.344;2023-04-30T05:53:24;15.10;99.90
34726;DHT22;20951;50.818;4.344;2023-04-30T05:55:50;16.00;99.90
34726;DHT22;20951;50.818;4.344;2023-04-30T05:58:16;17.30;99.90
34726;DHT22;20951;50.818;4.344;2023-04-30T06:00:41;18.10;99.90
34726;DHT22;20951;50.818;4.344;2023-04-30T06:03:07;18.70;99.90
34726;DHT22;20951;50.818;4.344;2023-04-30T06:05:33;19.20;99.90
34726;DHT22;20951;50.818;4.344;2023-04-30T06:07:59;19.90;99.90
34726;DHT22;20951;50.818;4.344;2023-04-30T06:10:25;19.90;99.90
34726;DHT22;20951;50.818;4.344;2023-04-30T06:12:51;20.20;99.90
34726;DHT22;20951;50.818;4.344;2023-04-30T06:15:17;21.20;99.90
34726;DHT22;20951;50.818;4.344;2023-04-30T06:17:43;22.10;99.90
34726;DHT22;20951;50.818;4.344;2023-04-30T06:20:09;22.00;99.90
34726;DHT22;20951;50.818;4.344;2023-04-30T06:22:35;22.10;99.90
34726;DHT22;20951;50.818;4.344;2023-04-30T06:25:04;22.80;99.90
34726;DHT22;20951;50.818;4.344;2023-04-30T06:27:30;23.20;99.90
34726;DHT22;20951;50.818;4.344;2023-04-30T06:29:56;23.30;99.40
34726;DHT22;20951;50.818;4.344;2023-04-30T06:32:23;23.00;99.40
34726;DHT22;20951;50.818;4.344;2023-04-30T06:34:49;23.60;98.70
34726;DHT22;20951;50.818;4.344;2023-04-30T06:37:15;23.00;97.90
34726;DHT22;20951;50.818;4.344;2023-04-30T06:39:41;23.40;97.90
34726;DHT22;20951;50.818;4.344;2023-04-30T06:42:06;24.00;97.10
34726;DHT22;20951;50.818;4.344;2023-04-30T06:44:32;24.10;96.50
34726;DHT22;20951;50.818;4.344;2023-04-30T06:46:58;24.30;95.70
34726;DHT22;20951;50.818;4.344;2023-04-30T06:49:24;25.10;94.60
34726;DHT22;20951;50.818;4.344;2023-04-30T06:51:50;25.50;94.20
34726;DHT22;20951;50.818;4.344;2023-04-30T06:54:16;25.90;93.00
34726;DHT22;20951;50.818;4.344;2023-04-30T06:56:42;25.80;92.80
34726;DHT22;20951;50.818;4.344;2023-04-30T06:59:11;26.70;91.80
34726;DHT22;20951;50.818;4.344;2023-04-30T07:01:37;26.30;91.20
34726;DHT22;20951;50.818;4.344;2023-04-30T07:04:03;26.10;91.30
34726;DHT22;20951;50.818;4.344;2023-04-30T07:06:29;26.00;91.30
34726;DHT22;20951;50.818;4.344;2023-04-30T07:08:56;26.40;91.30
34726;DHT22;20951;50.818;4.344;2023-04-30T07:11:22;27.00;90.40
34726;DHT22;20951;50.818;4.344;2023-04-30T07:13:48;27.40;89.40
34726;DHT22;20951;50.818;4.344;2023-04-30T07:16:14;27.40;89.30
34726;DHT22;20951;50.818;4.344;2023-04-30T07:18:42;26.90;88.10
34726;DHT22;20951;50.818;4.344;2023-04-30T07:21:07;26.80;89.20
34726;DHT22;20951;50.818;4.344;2023-04-30T07:23:34;27.00;87.20
34726;DHT22;20951;50.818;4.344;2023-04-30T07:25:59;27.20;87.00
34726;DHT22;20951;50.818;4.344;2023-04-30T07:28:25;26.70;86.70
34726;DHT22;20951;50.818;4.344;2023-04-30T07:30:51;26.70;86.70
34726;DHT22;20951;50.818;4.344;2023-04-30T07:33:17;27.00;86.20
34726;DHT22;20951;50.818;4.344;2023-04-30T07:35:43;27.00;86.30
34726;DHT22;20951;50.818;4.344;2023-04-30T07:38:09;28.50;85.60
34726;DHT22;20951;50.818;4.344;2023-04-30T07:40:35;29.40;82.70
34726;DHT22;20951;50.818;4.344;2023-04-30T07:43:02;29.50;80.40
34726;DHT22;20951;50.818;4.344;2023-04-30T07:45:29;29.30;79.90
34726;DHT22;20951;50.818;4.344;2023-04-30T07:47:56;29.10;80.20
34726;DHT22;20951;50.818;4.344;2023-04-30T07:50:22;28.70;80.40
34726;DHT22;20951;50.818;4.344;2023-04-30T07:52:48;29.20;80.00
34726;DHT22;20951;50.818;4.344;2023-04-30T07:55:15;29.80;79.20
34726;DHT22;20951;50.818;4.344;2023-04-30T07:57:41;29.90;78.20
34726;DHT22;20951;50.818;4.344;2023-04-30T08:00:10;30.40;76.80
34726;DHT22;20951;50.818;4.344;2023-04-30T08:02:36;30.50;75.60
34726;DHT22;20951;50.818;4.344;2023-04-30T08:05:02;30.00;75.80
34726;DHT22;20951;50.818;4.344;2023-04-30T08:07:28;30.20;76.10
34726;DHT22;20951;50.818;4.344;2023-04-30T08:09:54;30.00;74.70
34726;DHT22;20951;50.818;4.344;2023-04-30T08:12:20;29.60;75.30
34726;DHT22;20951;50.818;4.344;2023-04-30T08:14:46;29.60;76.30
34726;DHT22;20951;50.818;4.344;2023-04-30T08:17:12;30.10;75.80
34726;DHT22;20951;50.818;4.344;2023-04-30T08:19:40;30.90;74.20
34726;DHT22;20951;50.818;4.344;2023-04-30T08:22:06;30.80;72.40
34726;DHT22;20951;50.818;4.344;2023-04-30T08:24:32;30.40;73.00
34726;DHT22;20951;50.818;4.344;2023-04-30T08:26:58;30.80;72.90
34726;DHT22;20951;50.818;4.344;2023-04-30T08:29:31;31.50;72.70
34726;DHT22;20951;50.818;4.344;2023-04-30T08:31:58;32.10;71.90
34726;DHT22;20951;50.818;4.344;2023-04-30T08:34:32;32.80;70.20
34726;DHT22;20951;50.818;4.344;2023-04-30T08:36:58;32.00;68.30
34726;DHT22;20951;50.818;4.344;2023-04-30T08:39:27;31.30;69.80
34726;DHT22;20951;50.818;4.344;2023-04-30T08:42:01;31.00;69.80
34726;DHT22;20951;50.818;4.344;2023-04-30T08:44:29;30.30;70.50
34726;DHT22;20951;50.818;4.344;2023-04-30T08:46:56;30.30;70.10
34726;DHT22;20951;50.818;4.344;2023-04-30T08:49:25;30.40;70.10
34726;DHT22;20951;50.818;4.344;2023-04-30T08:51:52;30.90;68.80
34726;DHT22;20951;50.818;4.344;2023-04-30T08:54:18;30.20;69.30
34726;DHT22;20951;50.818;4.344;2023-04-30T08:56:45;30.20;69.50
34726;DHT22;20951;50.818;4.344;2023-04-30T08:59:12;29.90;69.70
34726;DHT22;20951;50.818;4.344;2023-04-30T09:01:38;30.10;69.10
34726;DHT22;20951;50.818;4.344;2023-04-30T09:04:05;30.50;68.10
34726;DHT22;20951;50.818;4.344;2023-04-30T09:06:31;30.40;69.70
34726;DHT22;20951;50.818;4.344;2023-04-30T09:08:57;31.30;69.30
34726;DHT22;20951;50.818;4.344;2023-04-30T09:11:32;31.10;66.30
34726;DHT22;20951;50.818;4.344;2023-04-30T09:14:01;30.70;66.50
34726;DHT22;20951;50.818;4.344;2023-04-30T09:16:43;30.60;66.10
34726;DHT22;20951;50.818;4.344;2023-04-30T09:19:21;30.50;65.70
34726;DHT22;20951;50.818;4.344;2023-04-30T09:21:47;29.90;66.30
34726;DHT22;20951;50.818;4.344;2023-04-30T09:24:13;30.00;66.00
34726;DHT22;20951;50.818;4.344;2023-04-30T09:26:39;30.10;65.00
34726;DHT22;20951;50.818;4.344;2023-04-30T09:29:05;28.70;67.70
34726;DHT22;20951;50.818;4.344;2023-04-30T09:31:36;28.60;67.00
34726;DHT22;20951;50.818;4.344;2023-04-30T09:34:02;28.90;66.40
34726;DHT22;20951;50.818;4.344;2023-04-30T09:36:29;28.90;66.50
34726;DHT22;20951;50.818;4.344;2023-04-30T09:38:56;29.20;65.80
34726;DHT22;20951;50.818;4.344;2023-04-30T09:41:27;29.30;66.70
34726;DHT22;20951;50.818;4.344;2023-04-30T09:43:54;30.50;66.70
34726;DHT22;20951;50.818;4.344;2023-04-30T09:46:28;30.90;67.00
34726;DHT22;20951;50.818;4.344;2023-04-30T09:48:57;31.30;66.80
34726;DHT22;20951;50.818;4.344;2023-04-30T09:51:24;31.30;66.10
34726;DHT22;20951;50.818;4.344;2023-04-30T09:53:52;30.90;67.20
34726;DHT22;20951;50.818;4.344;2023-04-30T09:56:25;30.60;66.10
34726;DHT22;20951;50.818;4.344;2023-04-30T09:58:53;31.00;66.40
34726;DHT22;20951;50.818;4.344;2023-04-30T10:01:20;30.40;66.00
34726;DHT22;20951;50.818;4.344;2023-04-30T10:03:47;29.70;67.10
34726;DHT22;20951;50.818;4.344;2023-04-30T10:06:14;29.90;66.70
34726;DHT22;20951;50.818;4.344;2023-04-30T10:08:47;30.40;65.70
34726;DHT22;20951;50.818;4.344;2023-04-30T10:11:20;30.50;65.30
34726;DHT22;20951;50.818;4.344;2023-04-30T10:13:50;30.10;64.80
34726;DHT22;20951;50.818;4.344;2023-04-30T10:16:41;30.20;62.70
34726;DHT22;20951;50.818;4.344;2023-04-30T10:19:18;29.70;64.10
34726;DHT22;20951;50.818;4.344;2023-04-30T10:21:46;29.00;65.30
34726;DHT22;20951;50.818;4.344;2023-04-30T10:24:13;29.30;64.90
34726;DHT22;20951;50.818;4.344;2023-04-30T10:26:40;30.20;64.80
34726;DHT22;20951;50.818;4.344;2023-04-30T10:29:07;30.60;63.60
34726;DHT22;20951;50.818;4.344;2023-04-30T10:31:34;30.40;62.80
34726;DHT22;20951;50.818;4.344;2023-04-30T10:39:55;30.00;62.30
34726;DHT22;20951;50.818;4.344;2023-04-30T10:42:21;30.10;62.70
34726;DHT22;20951;50.818;4.344;2023-04-30T10:44:47;29.90;62.80
34726;DHT22;20951;50.818;4.344;2023-04-30T10:47:15;29.50;62.80
34726;DHT22;20951;50.818;4.344;2023-04-30T10:49:45;29.30;63.30
34726;DHT22;20951;50.818;4.344;2023-04-30T10:52:25;29.00;63.50
34726;DHT22;20951;50.818;4.344;2023-04-30T10:54:54;28.70;64.00
34726;DHT22;20951;50.818;4.344;2023-04-30T10:57:21;28.20;65.50
34726;DHT22;20951;50.818;4.344;2023-04-30T10:59:53;28.10;65.10
34726;DHT22;20951;50.818;4.344;2023-04-30T11:02:19;28.30;65.80
34726;DHT22;20951;50.818;4.344;2023-04-30T11:07:33;28.50;64.50
34726;DHT22;20951;50.818;4.344;2023-04-30T11:10:00;28.70;63.60
34726;DHT22;20951;50.818;4.344;2023-04-30T11:12:27;28.30;63.90
34726;DHT22;20951;50.818;4.344;2023-04-30T11:15:06;28.40;63.70
34726;DHT22;20951;50.818;4.344;2023-04-30T11:17:37;28.80;63.60
34726;DHT22;20951;50.818;4.344;2023-04-30T11:20:04;29.20;64.30
34726;DHT22;20951;50.818;4.344;2023-04-30T11:22:31;29.40;62.80
34726;DHT22;20951;50.818;4.344;2023-04-30T11:25:08;29.10;64.30
34726;DHT22;20951;50.818;4.344;2023-04-30T11:27:37;29.30;64.70
34726;DHT22;20951;50.818;4.344;2023-04-30T11:30:09;30.00;62.50
34726;DHT22;20951;50.818;4.344;2023-04-30T11:32:37;30.60;62.20
34726;DHT22;20951;50.818;4.344;2023-04-30T11:35:04;30.90;60.20
34726;DHT22;20951;50.818;4.344;2023-04-30T11:37:39;31.30;60.50
34726;DHT22;20951;50.818;4.344;2023-04-30T11:40:13;30.60;60.20
34726;DHT22;20951;50.818;4.344;2023-04-30T11:42:41;31.10;60.00
34726;DHT22;20951;50.818;4.344;2023-04-30T11:45:10;31.20;59.70
34726;DHT22;20951;50.818;4.344;2023-04-30T11:47:50;31.30;60.10
34726;DHT22;20951;50.818;4.344;2023-04-30T11:50:25;31.40;59.50
34726;DHT22;20951;50.818;4.344;2023-04-30T11:52:56;31.10;59.80
34726;DHT22;20951;50.818;4.344;2023-04-30T11:55:24;29.80;61.40
34726;DHT22;20951;50.818;4.344;2023-04-30T11:57:54;28.90;62.60
34726;DHT22;20951;50.818;4.344;2023-04-30T12:00:25;28.90;62.60
34726;DHT22;20951;50.818;4.344;2023-04-30T12:02:53;29.40;63.30
34726;DHT22;20951;50.818;4.344;2023-04-30T12:05:21;28.50;63.60
34726;DHT22;20951;50.818;4.344;2023-04-30T12:08:07;28.50;63.80
34726;DHT22;20951;50.818;4.344;2023-04-30T12:10:34;28.10;63.70
34726;DHT22;20951;50.818;4.344;2023-04-30T12:13:03;27.70;64.60
34726;DHT22;20951;50.818;4.344;2023-04-30T12:15:29;26.90;64.60
34726;DHT22;20951;50.818;4.344;2023-04-30T12:17:58;26.60;66.10
34726;DHT22;20951;50.818;4.344;2023-04-30T12:20:27;26.80;65.80
34726;DHT22;20951;50.818;4.344;2023-04-30T12:22:53;27.30;65.00
34726;DHT22;20951;50.818;4.344;2023-04-30T12:25:21;27.40;63.60
34726;DHT22;20951;50.818;4.344;2023-04-30T12:27:47;28.10;63.70
34726;DHT22;20951;50.818;4.344;2023-04-30T12:30:17;28.70;64.50
34726;DHT22;20951;50.818;4.344;2023-04-30T12:32:45;30.00;63.10
34726;DHT22;20951;50.818;4.344;2023-04-30T12:35:15;30.50;61.30
34726;DHT22;20951;50.818;4.344;2023-04-30T12:37:49;29.30;60.90
34726;DHT22;20951;50.818;4.344;2023-04-30T12:40:18;27.80;63.30
34726;DHT22;20951;50.818;4.344;2023-04-30T12:42:47;27.80;64.20
34726;DHT22;20951;50.818;4.344;2023-04-30T12:45:43;28.10;63.90
34726;DHT22;20951;50.818;4.344;2023-04-30T12:48:09;27.40;64.20
34726;DHT22;20951;50.818;4.344;2023-04-30T12:50:35;27.10;64.50
34726;DHT22;20951;50.818;4.344;2023-04-30T12:53:03;27.60;63.90
34726;DHT22;20951;50.818;4.344;2023-04-30T12:55:29;27.50;63.10
34726;DHT22;20951;50.818;4.344;2023-04-30T12:58:10;26.80;64.30
34726;DHT22;20951;50.818;4.344;2023-04-30T13:03:09;27.70;64.20
34726;DHT22;20951;50.818;4.344;2023-04-30T13:05:35;27.50;64.60
34726;DHT22;20951;50.818;4.344;2023-04-30T13:08:02;27.90;64.50
34726;DHT22;20951;50.818;4.344;2023-04-30T13:10:33;28.60;63.20
34726;DHT22;20951;50.818;4.344;2023-04-30T13:12:59;29.30;61.20
34726;DHT22;20951;50.818;4.344;2023-04-30T13:15:25;30.60;59.90
34726;DHT22;20951;50.818;4.344;2023-04-30T13:17:52;32.00;58.20
34726;DHT22;20951;50.818;4.344;2023-04-30T13:20:18;32.30;57.80
34726;DHT22;20951;50.818;4.344;2023-04-30T13:22:44;32.30;57.80
34726;DHT22;20951;50.818;4.344;2023-04-30T13:25:10;32.60;58.20
34726;DHT22;20951;50.818;4.344;2023-04-30T13:27:36;33.10;57.50
34726;DHT22;20951;50.818;4.344;2023-04-30T13:30:03;32.60;56.90
34726;DHT22;20951;50.818;4.344;2023-04-30T13:32:29;31.60;58.00
34726;DHT22;20951;50.818;4.344;2023-04-30T13:34:54;30.70;58.50
34726;DHT22;20951;50.818;4.344;2023-04-30T13:37:21;29.60;59.70
34726;DHT22;20951;50.818;4.344;2023-04-30T13:39:47;29.30;60.80
34726;DHT22;20951;50.818;4.344;2023-04-30T13:42:13;28.70;60.30
34726;DHT22;20951;50.818;4.344;2023-04-30T13:44:39;28.40;61.40
34726;DHT22;20951;50.818;4.344;2023-04-30T13:47:10;29.00;60.30
34726;DHT22;20951;50.818;4.344;2023-04-30T13:49:36;29.80;59.90
34726;DHT22;20951;50.818;4.344;2023-04-30T13:52:05;30.00;59.00
34726;DHT22;20951;50.818;4.344;2023-04-30T13:54:31;29.00;59.20
34726;DHT22;20951;50.818;4.344;2023-04-30T13:56:58;28.00;60.80
34726;DHT22;20951;50.818;4.344;2023-04-30T13:59:24;28.20;61.20
34726;DHT22;20951;50.818;4.344;2023-04-30T14:01:50;28.40;62.10
34726;DHT22;20951;50.818;4.344;2023-04-30T14:04:19;28.40;61.00
34726;DHT22;20951;50.818;4.344;2023-04-30T14:06:45;28.40;60.80
34726;DHT22;20951;50.818;4.344;2023-04-30T14:09:13;28.10;60.10
34726;DHT22;20951;50.818;4.344;2023-04-30T14:11:40;28.30;60.80
34726;DHT22;20951;50.818;4.344;2023-04-30T14:14:07;28.10;60.70
34726;DHT22;20951;50.818;4.344;2023-04-30T14:16:33;28.00;61.10
34726;DHT22;20951;50.818;4.344;2023-04-30T14:19:02;27.80;61.30
34726;DHT22;20951;50.818;4.344;2023-04-30T14:21:29;28.20;62.00
34726;DHT22;20951;50.818;4.344;2023-04-30T14:23:55;28.40;61.60
34726;DHT22;20951;50.818;4.344;2023-04-30T14:26:21;28.30;61.00
34726;DHT22;20951;50.818;4.344;2023-04-30T14:28:47;27.80;61.50
34726;DHT22;20951;50.818;4.344;2023-04-30T14:31:13;27.60;62.70
34726;DHT22;20951;50.818;4.344;2023-04-30T14:33:39;27.00;63.00
34726;DHT22;20951;50.818;4.344;2023-04-30T14:36:05;26.50;64.30
34726;DHT22;20951;50.818;4.344;2023-04-30T14:38:32;25.80;64.90
34726;DHT22;20951;50.818;4.344;2023-04-30T14:40:58;25.90;65.90
34726;DHT22;20951;50.818;4.344;2023-04-30T14:43:24;26.00;65.30
34726;DHT22;20951;50.818;4.344;2023-04-30T14:45:51;26.20;65.00
34726;DHT22;20951;50.818;4.344;2023-04-30T14:48:17;26.50;64.20
34726;DHT22;20951;50.818;4.344;2023-04-30T14:50:43;27.00;63.70
34726;DHT22;20951;50.818;4.344;2023-04-30T14:53:10;27.10;63.50
34726;DHT22;20951;50.818;4.344;2023-04-30T14:55:37;26.60;63.70
34726;DHT22;20951;50.818;4.344;2023-04-30T14:58:03;26.10;64.30
34726;DHT22;20951;50.818;4.344;2023-04-30T15:00:30;25.50;65.20
34726;DHT22;20951;50.818;4.344;2023-04-30T15:02:57;24.80;66.50
34726;DHT22;20951;50.818;4.344;2023-04-30T15:05:24;24.50;67.10
34726;DHT22;20951;50.818;4.344;2023-04-30T15:07:50;24.30;68.00
34726;DHT22;20951;50.818;4.344;2023-04-30T15:10:16;24.10;68.80
34726;DHT22;20951;50.818;4.344;2023-04-30T15:12:42;23.80;69.20
34726;DHT22;20951;50.818;4.344;2023-04-30T15:15:09;23.40;69.60
34726;DHT22;20951;50.818;4.344;2023-04-30T15:17:35;23.10;69.80
34726;DHT22;20951;50.818;4.344;2023-04-30T15:20:04;23.20;70.40
34726;DHT22;20951;50.818;4.344;2023-04-30T15:22:31;23.20;70.50
34726;DHT22;20951;50.818;4.344;2023-04-30T15:24:58;23.10;70.90
34726;DHT22;20951;50.818;4.344;2023-04-30T15:27:27;23.10;71.00
34726;DHT22;20951;50.818;4.344;2023-04-30T15:29:53;22.90;71.50
34726;DHT22;20951;50.818;4.344;2023-04-30T15:32:19;23.00;71.30
34726;DHT22;20951;50.818;4.344;2023-04-30T15:34:45;22.70;70.90
34726;DHT22;20951;50.818;4.344;2023-04-30T15:37:11;22.60;71.60
34726;DHT22;20951;50.818;4.344;2023-04-30T15:39:37;22.60;71.80
34726;DHT22;20951;50.818;4.344;2023-04-30T15:42:04;22.50;72.00
34726;DHT22;20951;50.818;4.344;2023-04-30T15:44:30;22.50;72.20
34726;DHT22;20951;50.818;4.344;2023-04-30T15:46:56;22.70;72.70
34726;DHT22;20951;50.818;4.344;2023-04-30T15:49:22;22.90;72.00
34726;DHT22;20951;50.818;4.344;2023-04-30T15:51:50;22.80;71.40
34726;DHT22;20951;50.818;4.344;2023-04-30T15:54:20;22.30;72.30
34726;DHT22;20951;50.818;4.344;2023-04-30T15:56:47;22.30;73.10